createdAt,value
2019-05-20T00:01:54.823Z,12.20
2019-05-20T00:04:23.398Z,12.20
2019-05-20T00:06:51.826Z,12.10
2019-05-20T00:09:20.217Z,12.10
2019-05-20T00:11:48.690Z,12.00
2019-05-20T00:14:17.086Z,12.00
2019-05-20T00:16:45.650Z,12.00
2019-05-20T00:19:14.204Z,12.00
2019-05-20T00:21:42.662Z,12.00
2019-05-20T00:24:11.264Z,12.00
2019-05-20T00:26:39.678Z,12.00
2019-05-20T00:29:08.066Z,12.00
2019-05-20T00:31:36.464Z,12.00
2019-05-20T00:34:04.883Z,12.00
2019-05-20T00:36:33.531Z,12.10
2019-05-20T00:39:18.576Z,12.10
2019-05-20T00:41:47.034Z,12.10
2019-05-20T00:44:15.814Z,12.10
2019-05-20T00:46:44.289Z,12.10
2019-05-20T00:49:12.708Z,12.00
2019-05-20T00:51:41.123Z,12.00
2019-05-20T00:54:09.590Z,12.00
2019-05-20T00:56:38.135Z,12.00
2019-05-20T00:59:06.934Z,11.90
2019-05-20T01:01:35.326Z,11.90
2019-05-20T01:04:03.782Z,11.90
2019-05-20T01:06:32.227Z,11.90
2019-05-20T01:09:00.627Z,11.90
2019-05-20T01:11:29.016Z,11.90
2019-05-20T01:13:57.448Z,11.90
2019-05-20T01:16:25.910Z,11.90
2019-05-20T01:18:54.299Z,11.90
2019-05-20T01:21:22.842Z,11.90
2019-05-20T01:23:51.255Z,11.80
2019-05-20T01:26:19.707Z,11.80
2019-05-20T01:28:48.106Z,11.80
2019-05-20T01:31:16.498Z,11.80
2019-05-20T01:33:45.074Z,11.80
2019-05-20T01:36:13.534Z,11.80
2019-05-20T01:38:42.049Z,11.80
2019-05-20T01:41:10.447Z,11.80
2019-05-20T01:43:38.924Z,11.70
2019-05-20T01:46:07.423Z,11.70
2019-05-20T01:48:35.830Z,11.60
2019-05-20T01:51:04.323Z,11.60
2019-05-20T01:53:32.810Z,11.60
2019-05-20T01:56:01.283Z,11.60
2019-05-20T01:58:29.743Z,11.60
2019-05-20T02:00:58.154Z,11.60
2019-05-20T02:03:31.922Z,11.70
2019-05-20T02:05:56.684Z,11.70
2019-05-20T02:08:25.181Z,11.70
2019-05-20T02:10:56.543Z,11.70
2019-05-20T02:13:25.475Z,11.70
2019-05-20T02:16:04.559Z,11.70
2019-05-20T02:18:33.062Z,11.80
2019-05-20T02:21:01.495Z,11.80
2019-05-20T02:23:29.890Z,11.80
2019-05-20T02:25:58.638Z,11.80
2019-05-20T02:28:27.055Z,11.80
2019-05-20T02:30:57.028Z,11.90
2019-05-20T02:33:25.751Z,11.90
2019-05-20T02:35:54.174Z,11.90
2019-05-20T02:38:22.551Z,11.90
2019-05-20T02:40:50.952Z,11.90
2019-05-20T02:43:19.356Z,11.90
2019-05-20T02:45:47.940Z,11.90
2019-05-20T02:48:16.621Z,11.90
2019-05-20T02:50:45.016Z,11.90
2019-05-20T02:53:13.404Z,12.00
2019-05-20T02:55:41.841Z,12.00
2019-05-20T02:58:10.409Z,12.00
2019-05-20T03:00:38.797Z,12.00
2019-05-20T03:03:07.494Z,12.00
2019-05-20T03:05:36.218Z,12.00
2019-05-20T03:08:04.867Z,12.10
2019-05-20T03:10:33.272Z,12.10
2019-05-20T03:13:01.668Z,12.10
2019-05-20T03:15:30.183Z,12.10
2019-05-20T03:17:58.742Z,12.10
2019-05-20T03:20:27.152Z,12.10
2019-05-20T03:22:55.543Z,12.10
2019-05-20T03:25:23.981Z,12.10
2019-05-20T03:27:52.384Z,12.20
2019-05-20T03:30:20.790Z,12.20
2019-05-20T03:32:49.338Z,12.20
2019-05-20T03:35:18.604Z,12.20
2019-05-20T03:37:47.029Z,12.20
2019-05-20T03:40:15.581Z,12.20
2019-05-20T03:42:43.985Z,12.20
2019-05-20T03:45:12.654Z,12.20
2019-05-20T03:47:41.121Z,12.20
2019-05-20T03:50:10.203Z,12.20
2019-05-20T03:52:38.609Z,12.20
2019-05-20T03:55:07.888Z,12.20
2019-05-20T03:57:36.265Z,12.20
2019-05-20T04:00:06.908Z,12.30
2019-05-20T04:02:35.378Z,12.30
2019-05-20T04:05:04.045Z,12.30
2019-05-20T04:07:33.335Z,12.30
2019-05-20T04:10:01.733Z,12.30
2019-05-20T04:12:30.171Z,12.40
2019-05-20T04:14:58.592Z,12.40
2019-05-20T04:17:26.983Z,12.40
2019-05-20T04:19:55.399Z,12.40
2019-05-20T04:22:23.799Z,12.50
2019-05-20T04:24:52.379Z,12.50
2019-05-20T04:27:20.780Z,12.60
2019-05-20T04:29:49.252Z,12.60
2019-05-20T04:32:17.743Z,12.70
2019-05-20T04:34:46.156Z,12.70
2019-05-20T04:37:14.563Z,12.80
2019-05-20T04:39:43.156Z,12.80
2019-05-20T04:42:11.561Z,12.90
2019-05-20T04:44:40.028Z,12.90
2019-05-20T04:47:08.518Z,13.00
2019-05-20T04:49:37.070Z,13.00
2019-05-20T04:52:05.510Z,13.10
2019-05-20T04:54:33.899Z,13.10
2019-05-20T04:57:02.451Z,13.20
2019-05-20T04:59:30.865Z,13.30
2019-05-20T05:01:59.480Z,13.30
2019-05-20T05:04:28.014Z,13.40
2019-05-20T05:06:56.421Z,13.40
2019-05-20T05:09:24.835Z,13.50
2019-05-20T05:11:53.323Z,13.50
2019-05-20T05:14:21.769Z,13.60
2019-05-20T05:16:50.203Z,13.70
2019-05-20T05:19:18.622Z,13.70
2019-05-20T05:21:47.142Z,13.70
2019-05-20T05:24:15.549Z,13.80
2019-05-20T05:26:47.312Z,13.80
2019-05-20T05:29:14.250Z,13.90
2019-05-20T05:31:42.689Z,13.90
2019-05-20T05:34:11.146Z,14.00
2019-05-20T05:36:39.937Z,14.10
2019-05-20T05:39:08.442Z,14.20
2019-05-20T05:41:36.842Z,14.20
2019-05-20T05:44:05.323Z,14.20
2019-05-20T05:46:33.730Z,14.30
2019-05-20T05:49:02.147Z,14.30
2019-05-20T05:51:30.535Z,14.30
2019-05-20T05:53:59.016Z,14.30
2019-05-20T05:56:27.426Z,14.40
2019-05-20T05:58:56.064Z,14.40
2019-05-20T06:01:24.476Z,14.40
2019-05-20T06:03:52.880Z,14.40
2019-05-20T06:06:21.285Z,14.30
2019-05-20T06:08:49.680Z,14.30
2019-05-20T06:11:18.105Z,14.40
2019-05-20T06:13:46.514Z,14.40
2019-05-20T06:16:15.070Z,14.50
2019-05-20T06:18:43.797Z,14.60
2019-05-20T06:21:12.192Z,14.60
2019-05-20T06:23:40.619Z,14.70
2019-05-20T06:26:09.114Z,14.90
2019-05-20T06:28:37.483Z,15.00
2019-05-20T06:31:05.970Z,15.20
2019-05-20T06:33:34.386Z,15.30
2019-05-20T06:36:02.947Z,15.50
2019-05-20T06:38:36.064Z,15.60
2019-05-20T06:41:06.175Z,15.70
2019-05-20T06:43:34.655Z,15.70
2019-05-20T06:46:03.068Z,15.80
2019-05-20T06:48:31.535Z,15.80
2019-05-20T06:51:00.041Z,15.80
2019-05-20T06:53:28.514Z,15.80
2019-05-20T06:55:56.934Z,15.90
2019-05-20T06:58:25.302Z,16.00
2019-05-20T07:00:53.867Z,16.20
2019-05-20T07:03:22.262Z,16.30
2019-05-20T07:05:50.667Z,16.40
2019-05-20T07:08:19.109Z,16.50
2019-05-20T07:10:47.572Z,16.40
2019-05-20T07:13:16.443Z,16.30
2019-05-20T07:15:44.951Z,16.20
2019-05-20T07:18:13.395Z,16.20
2019-05-20T07:20:41.919Z,16.30
2019-05-20T07:23:10.318Z,16.30
2019-05-20T07:25:38.735Z,16.40
2019-05-20T07:28:07.214Z,16.30
2019-05-20T07:30:35.637Z,16.40
2019-05-20T07:33:04.112Z,16.40
2019-05-20T07:35:32.596Z,16.40
2019-05-20T07:38:01.001Z,16.40
2019-05-20T07:40:30.929Z,16.30
2019-05-20T07:42:59.351Z,16.20
2019-05-20T07:45:29.889Z,16.10
2019-05-20T07:47:58.492Z,16.10
2019-05-20T07:50:28.828Z,16.00
2019-05-20T07:53:00.456Z,15.90
2019-05-20T07:55:30.266Z,15.90
2019-05-20T07:58:01.763Z,15.70
2019-05-20T08:00:30.171Z,15.60
2019-05-20T08:02:58.676Z,15.50
2019-05-20T08:05:27.138Z,15.40
2019-05-20T08:07:55.650Z,15.20
2019-05-20T08:10:24.126Z,15.10
2019-05-20T08:12:52.526Z,15.00
2019-05-20T08:15:20.958Z,14.80
2019-05-20T08:17:49.350Z,14.70
2019-05-20T08:20:18.700Z,14.50
2019-05-20T08:22:47.121Z,14.30
2019-05-20T08:25:15.755Z,14.10
2019-05-20T08:27:44.384Z,13.90
2019-05-20T08:30:14.249Z,13.90
2019-05-20T08:32:43.115Z,13.90
2019-05-20T08:35:11.953Z,13.90
2019-05-20T08:37:45.754Z,13.90
2019-05-20T08:40:11.165Z,14.00
2019-05-20T08:42:39.618Z,14.00
2019-05-20T08:45:09.208Z,14.20
2019-05-20T08:47:37.616Z,14.20
2019-05-20T08:50:12.624Z,14.30
2019-05-20T08:52:37.958Z,14.40
2019-05-20T08:55:06.652Z,14.50
2019-05-20T08:57:35.085Z,14.50
2019-05-20T09:00:05.064Z,14.60
2019-05-20T09:02:33.551Z,14.60
2019-05-20T09:05:02.301Z,14.60
2019-05-20T09:07:30.935Z,14.70
2019-05-20T09:09:59.344Z,14.90
2019-05-20T09:12:27.829Z,15.10
2019-05-20T09:14:56.482Z,15.40
2019-05-20T09:17:25.091Z,15.70
2019-05-20T09:19:53.546Z,15.90
2019-05-20T09:22:22.032Z,16.00
2019-05-20T09:24:50.908Z,15.90
2019-05-20T09:27:19.581Z,15.90
2019-05-20T09:29:47.995Z,15.70
2019-05-20T09:32:16.655Z,15.50
2019-05-20T09:34:45.491Z,15.30
2019-05-20T09:37:13.906Z,15.10
2019-05-20T09:39:42.306Z,14.90
2019-05-20T09:42:10.755Z,14.70
2019-05-20T09:44:39.316Z,14.60
2019-05-20T09:47:07.707Z,14.60
2019-05-20T09:49:36.144Z,14.60
2019-05-20T09:52:04.683Z,14.70
2019-05-20T09:54:33.127Z,14.80
2019-05-20T09:57:01.570Z,14.90
2019-05-20T09:59:42.707Z,15.10
2019-05-20T10:02:00.127Z,15.30
2019-05-20T10:04:28.805Z,15.50
2019-05-20T10:06:57.286Z,15.70
2019-05-20T10:09:25.687Z,15.70
2019-05-20T10:11:54.102Z,15.80
2019-05-20T10:14:22.521Z,15.90
2019-05-20T10:16:50.992Z,16.00
2019-05-20T10:19:19.408Z,16.30
2019-05-20T10:21:47.820Z,16.50
2019-05-20T10:24:16.214Z,16.70
2019-05-20T10:26:44.714Z,16.80
2019-05-20T10:29:13.125Z,16.80
2019-05-20T10:31:41.539Z,16.70
2019-05-20T10:34:10.020Z,16.70
2019-05-20T10:36:38.446Z,16.60
2019-05-20T10:39:08.275Z,16.50
2019-05-20T10:41:37.242Z,16.50
2019-05-20T10:44:05.678Z,16.40
2019-05-20T10:46:34.090Z,16.40
2019-05-20T10:49:02.674Z,16.30
2019-05-20T10:51:31.224Z,16.30
2019-05-20T10:53:59.635Z,16.20
2019-05-20T10:56:28.087Z,16.20
2019-05-20T10:58:56.626Z,16.20
2019-05-20T11:01:25.048Z,16.20
2019-05-20T11:03:53.447Z,16.10
2019-05-20T11:06:21.941Z,16.10
2019-05-20T11:08:50.343Z,16.10
2019-05-20T11:11:18.743Z,16.00
2019-05-20T11:13:48.819Z,16.00
2019-05-20T11:16:18.440Z,15.90
2019-05-20T11:18:47.077Z,15.90
2019-05-20T11:21:15.611Z,16.00
2019-05-20T11:23:44.374Z,16.00
2019-05-20T11:26:12.768Z,16.10
2019-05-20T11:28:41.276Z,16.10
2019-05-20T11:31:09.667Z,16.20
2019-05-20T11:33:38.083Z,16.20
2019-05-20T11:36:06.496Z,16.10
2019-05-20T11:38:35.171Z,16.00
2019-05-20T11:41:03.571Z,15.90
2019-05-20T11:43:32.055Z,15.90
2019-05-20T11:46:00.624Z,15.90
2019-05-20T11:48:29.111Z,15.80
2019-05-20T11:50:57.509Z,15.80
2019-05-20T11:53:26.108Z,15.90
2019-05-20T11:55:54.662Z,15.90
2019-05-20T11:58:23.058Z,16.00
2019-05-20T12:00:51.482Z,16.00
2019-05-20T12:03:19.882Z,16.00
2019-05-20T12:05:48.406Z,16.00
2019-05-20T12:08:17.102Z,16.10
2019-05-20T12:10:45.502Z,16.10
2019-05-20T12:13:13.936Z,16.00
2019-05-20T12:15:42.472Z,15.90
2019-05-20T12:18:10.894Z,15.80
2019-05-20T12:20:39.579Z,15.70
2019-05-20T12:23:08.012Z,15.60
2019-05-20T12:25:36.482Z,15.50
2019-05-20T12:28:04.877Z,15.40
2019-05-20T12:30:33.312Z,15.30
2019-05-20T12:33:17.811Z,15.20
2019-05-20T12:35:31.900Z,15.20
2019-05-20T12:38:00.305Z,15.20
2019-05-20T12:40:28.699Z,15.30
2019-05-20T12:42:57.123Z,15.40
2019-05-20T12:45:26.088Z,15.50
2019-05-20T12:47:54.528Z,15.60
2019-05-20T12:50:24.091Z,15.80
2019-05-20T12:52:52.490Z,15.90
2019-05-20T12:55:20.903Z,16.00
2019-05-20T12:57:49.309Z,16.10
2019-05-20T13:00:19.670Z,16.20
2019-05-20T13:02:48.129Z,16.30
2019-05-20T13:05:16.893Z,16.50
2019-05-20T13:07:45.321Z,16.50
2019-05-20T13:10:29.125Z,16.60
2019-05-20T13:12:44.393Z,16.70
2019-05-20T13:15:13.041Z,16.80
2019-05-20T13:17:44.902Z,16.90
2019-05-20T13:20:11.846Z,17.00
2019-05-20T13:22:40.348Z,17.10
2019-05-20T13:25:09.471Z,17.30
2019-05-20T13:27:37.988Z,17.30
2019-05-20T13:30:10.240Z,17.40
2019-05-20T13:32:38.631Z,17.40
2019-05-20T13:35:07.789Z,17.40
2019-05-20T13:37:36.801Z,17.40
2019-05-20T13:40:06.832Z,17.30
2019-05-20T13:42:35.420Z,17.20
2019-05-20T13:45:05.530Z,17.00
2019-05-20T13:47:34.054Z,17.00
2019-05-20T13:50:03.042Z,16.90
2019-05-20T13:52:31.492Z,16.80
2019-05-20T13:54:59.895Z,16.80
2019-05-20T13:57:28.609Z,16.60
2019-05-20T13:59:57.415Z,16.50
2019-05-20T14:02:25.816Z,16.40
2019-05-20T14:04:54.263Z,16.30
2019-05-20T14:07:22.786Z,16.30
2019-05-20T14:09:51.259Z,16.30
2019-05-20T14:12:19.726Z,16.20
2019-05-20T14:14:48.146Z,16.20
2019-05-20T14:17:16.594Z,16.10
2019-05-20T14:19:45.307Z,16.10
2019-05-20T14:22:13.718Z,16.00
2019-05-20T14:24:42.148Z,16.00
2019-05-20T14:27:10.614Z,16.00
2019-05-20T14:29:39.091Z,16.00
2019-05-20T14:32:07.634Z,16.00
2019-05-20T14:34:44.211Z,16.00
2019-05-20T14:37:12.911Z,16.10
2019-05-20T14:39:41.387Z,16.30
2019-05-20T14:42:09.874Z,16.40
2019-05-20T14:44:38.283Z,16.50
2019-05-20T14:47:06.689Z,16.50
2019-05-20T14:49:35.157Z,16.50
2019-05-20T14:52:03.724Z,16.40
2019-05-20T14:54:32.159Z,16.40
2019-05-20T14:57:00.854Z,16.30
2019-05-20T14:59:29.296Z,16.30
2019-05-20T15:01:58.035Z,16.30
2019-05-20T15:04:26.445Z,16.30
2019-05-20T15:06:54.838Z,16.40
2019-05-20T15:09:23.273Z,16.40
2019-05-20T15:11:51.721Z,16.40
2019-05-20T15:14:20.150Z,16.40
2019-05-20T15:16:48.666Z,16.50
2019-05-20T15:19:17.096Z,16.40
2019-05-20T15:21:45.533Z,16.40
2019-05-20T15:24:14.075Z,16.30
2019-05-20T15:26:42.780Z,16.10
2019-05-20T15:29:27.041Z,16.00
2019-05-20T15:31:41.511Z,15.90
2019-05-20T15:34:09.935Z,15.90
2019-05-20T15:36:38.370Z,15.80
2019-05-20T15:39:07.639Z,15.80
2019-05-20T15:41:36.279Z,15.80
2019-05-20T15:44:04.786Z,15.80
2019-05-20T15:46:33.209Z,15.80
2019-05-20T15:49:01.620Z,15.80
2019-05-20T15:51:30.030Z,15.80
2019-05-20T15:53:58.456Z,15.80
2019-05-20T15:56:26.860Z,15.80
2019-05-20T15:58:55.272Z,15.80
2019-05-20T16:01:23.683Z,15.80
2019-05-20T16:03:52.101Z,15.80
2019-05-20T16:06:20.867Z,15.70
2019-05-20T16:08:49.279Z,15.70
2019-05-20T16:11:17.847Z,15.60
2019-05-20T16:13:46.270Z,15.60
2019-05-20T16:16:14.845Z,15.60
2019-05-20T16:18:43.257Z,15.60
2019-05-20T16:21:11.659Z,15.60
2019-05-20T16:23:40.247Z,15.60
2019-05-20T16:26:09.507Z,15.50
2019-05-20T16:28:42.554Z,15.50
2019-05-20T16:31:08.104Z,15.50
2019-05-20T16:33:36.502Z,15.40
2019-05-20T16:36:05.019Z,15.40
2019-05-20T16:38:33.435Z,15.40
2019-05-20T16:41:01.931Z,15.30
2019-05-20T16:43:30.326Z,15.30
2019-05-20T16:45:58.759Z,15.30
2019-05-20T16:48:27.175Z,15.20
2019-05-20T16:50:55.585Z,15.10
2019-05-20T16:53:25.096Z,15.00
2019-05-20T16:55:53.618Z,15.00
2019-05-20T16:58:22.375Z,14.90
2019-05-20T17:00:50.793Z,14.90
2019-05-20T17:03:19.194Z,14.90
2019-05-20T17:05:47.699Z,14.80
2019-05-20T17:08:16.227Z,14.80
2019-05-20T17:10:44.680Z,14.80
2019-05-20T17:13:13.158Z,14.70
2019-05-20T17:15:41.719Z,14.60
2019-05-20T17:18:10.235Z,14.50
2019-05-20T17:20:39.109Z,14.50
2019-05-20T17:23:07.603Z,14.40
2019-05-20T17:25:37.144Z,14.30
2019-05-20T17:28:05.623Z,14.30
2019-05-20T17:30:44.870Z,14.20
2019-05-20T17:33:04.165Z,14.10
2019-05-20T17:35:32.832Z,14.00
2019-05-20T17:38:01.249Z,14.00
2019-05-20T17:40:30.326Z,13.90
2019-05-20T17:42:58.911Z,13.90
2019-05-20T17:45:27.331Z,13.90
2019-05-20T17:47:55.747Z,13.80
2019-05-20T17:50:24.167Z,13.80
2019-05-20T17:52:52.574Z,13.80
2019-05-20T17:55:21.350Z,13.80
2019-05-20T17:57:49.894Z,13.80
2019-05-20T18:00:20.388Z,13.80
2019-05-20T18:02:48.946Z,13.70
2019-05-20T18:05:17.420Z,13.70
2019-05-20T18:07:45.851Z,13.70
2019-05-20T18:10:15.819Z,13.70
2019-05-20T18:12:44.602Z,13.70
2019-05-20T18:15:13.857Z,13.70
2019-05-20T18:17:42.383Z,13.70
2019-05-20T18:20:10.979Z,13.60
2019-05-20T18:22:39.434Z,13.60
2019-05-20T18:25:08.291Z,13.60
2019-05-20T18:27:36.708Z,13.60
2019-05-20T18:30:06.913Z,13.60
2019-05-20T18:32:38.324Z,13.60
2019-05-20T18:35:06.015Z,13.60
2019-05-20T18:37:34.475Z,13.50
2019-05-20T18:40:13.531Z,13.50
2019-05-20T18:42:33.239Z,13.50
2019-05-20T18:45:01.654Z,13.50
2019-05-20T18:47:30.059Z,13.50
2019-05-20T18:49:58.549Z,13.50
2019-05-20T18:52:27.623Z,13.50
2019-05-20T18:54:56.040Z,13.50
2019-05-20T18:57:24.506Z,13.50
2019-05-20T18:59:52.923Z,13.50
2019-05-20T19:02:21.322Z,13.50
2019-05-20T19:04:49.804Z,13.50
2019-05-20T19:07:18.217Z,13.50
2019-05-20T19:09:46.643Z,13.50
2019-05-20T19:12:15.242Z,13.50
2019-05-20T19:14:43.659Z,13.50
2019-05-20T19:17:12.151Z,13.40
2019-05-20T19:19:40.655Z,13.40
2019-05-20T19:22:09.253Z,13.40
2019-05-20T19:24:37.654Z,13.40
2019-05-20T19:27:06.217Z,13.40
2019-05-20T19:29:34.650Z,13.40
2019-05-20T19:32:03.882Z,13.40
2019-05-20T19:34:32.399Z,13.40
2019-05-20T19:37:00.823Z,13.40
2019-05-20T19:39:29.259Z,13.40
2019-05-20T19:41:57.838Z,13.40
2019-05-20T19:44:26.726Z,13.40
2019-05-20T19:46:55.492Z,13.30
2019-05-20T19:49:23.883Z,13.30
2019-05-20T19:51:52.295Z,13.30
2019-05-20T19:54:20.872Z,13.30
2019-05-20T19:56:49.304Z,13.30
2019-05-20T19:59:17.766Z,13.30
2019-05-20T20:01:46.182Z,13.30
2019-05-20T20:04:14.655Z,13.30
2019-05-20T20:06:43.168Z,13.20
2019-05-20T20:09:11.651Z,13.20
2019-05-20T20:11:40.056Z,13.20
2019-05-20T20:14:08.598Z,13.20
2019-05-20T20:16:37.039Z,13.10
2019-05-20T20:19:05.447Z,13.10
2019-05-20T20:21:33.870Z,13.10
2019-05-20T20:24:02.287Z,13.10
2019-05-20T20:26:30.768Z,13.10
2019-05-20T20:28:59.364Z,13.10
2019-05-20T20:31:27.798Z,13.10
2019-05-20T20:33:56.273Z,13.10
2019-05-20T20:36:24.663Z,13.00
2019-05-20T20:38:53.099Z,13.00
2019-05-20T20:41:21.698Z,13.00
2019-05-20T20:43:50.207Z,13.00
2019-05-20T20:46:18.618Z,13.00
2019-05-20T20:48:47.015Z,12.90
2019-05-20T20:51:15.695Z,12.90
2019-05-20T20:53:44.094Z,12.90
2019-05-20T20:56:24.659Z,12.90
2019-05-20T20:58:42.633Z,12.80
2019-05-20T21:01:11.034Z,12.80
2019-05-20T21:03:39.589Z,12.70
2019-05-20T21:06:08.009Z,12.70
2019-05-20T21:08:36.422Z,12.70
2019-05-20T21:11:05.074Z,12.70
2019-05-20T21:13:33.480Z,12.60
2019-05-20T21:16:01.888Z,12.60
2019-05-20T21:18:30.306Z,12.60
2019-05-20T21:20:58.963Z,12.60
2019-05-20T21:23:27.731Z,12.60
2019-05-20T21:25:56.156Z,12.50
2019-05-20T21:28:24.654Z,12.50
2019-05-20T21:30:53.242Z,12.50
2019-05-20T21:33:21.687Z,12.50
2019-05-20T21:35:50.130Z,12.50
2019-05-20T21:38:18.566Z,12.50
2019-05-20T21:40:47.076Z,12.50
2019-05-20T21:43:15.507Z,12.50
2019-05-20T21:45:44.144Z,12.50
2019-05-20T21:48:12.592Z,12.50
2019-05-20T21:50:41.002Z,12.50
2019-05-20T21:53:09.418Z,12.50
2019-05-20T21:55:37.886Z,12.50
2019-05-20T21:58:06.397Z,12.60
2019-05-20T22:00:42.278Z,12.60
2019-05-20T22:03:23.630Z,12.60
2019-05-20T22:05:40.860Z,12.60
2019-05-20T22:08:09.301Z,12.50
2019-05-20T22:10:37.722Z,12.60
2019-05-20T22:13:06.146Z,12.60
2019-05-20T22:15:34.547Z,12.60
2019-05-20T22:18:02.958Z,12.60
2019-05-20T22:20:31.366Z,12.50
2019-05-20T22:23:16.281Z,12.50
2019-05-20T22:25:46.701Z,12.50
2019-05-20T22:28:15.234Z,12.50
2019-05-20T22:30:43.654Z,12.50
2019-05-20T22:33:12.322Z,12.50
2019-05-20T22:35:40.765Z,12.50
2019-05-20T22:38:09.373Z,12.50
2019-05-20T22:40:37.801Z,12.50
2019-05-20T22:43:06.428Z,12.50
2019-05-20T22:45:34.971Z,12.50
2019-05-20T22:48:03.406Z,12.50
2019-05-20T22:50:31.807Z,12.50
2019-05-20T22:53:00.231Z,12.50
2019-05-20T22:55:28.682Z,12.50
2019-05-20T22:57:57.106Z,12.40
2019-05-20T23:00:25.520Z,12.40
2019-05-20T23:02:53.930Z,12.40
2019-05-20T23:05:22.343Z,12.50
2019-05-20T23:07:50.811Z,12.40
2019-05-20T23:10:19.290Z,12.50
2019-05-20T23:12:47.756Z,12.40
2019-05-20T23:15:16.290Z,12.50
2019-05-20T23:17:44.690Z,12.50
2019-05-20T23:20:13.344Z,12.50
2019-05-20T23:22:41.739Z,12.50
2019-05-20T23:25:10.322Z,12.50
2019-05-20T23:27:38.820Z,12.50
2019-05-20T23:30:08.226Z,12.50
2019-05-20T23:32:36.637Z,12.60
2019-05-20T23:35:06.579Z,12.60
2019-05-20T23:37:35.067Z,12.60
2019-05-20T23:40:05.107Z,12.60
2019-05-20T23:42:33.603Z,12.60
2019-05-20T23:45:02.082Z,12.60
2019-05-20T23:47:30.539Z,12.60
2019-05-20T23:49:58.958Z,12.60
2019-05-20T23:52:27.362Z,12.60
2019-05-20T23:54:56.083Z,12.60
2019-05-20T23:57:24.562Z,12.60
2019-05-20T23:59:53.323Z,12.60
